sim
Sign-in with your pilot id or email,
or register
Callsign
Passwort

Schedule Details

Flight Number: DLH1835 (4)
Departure: Malaga Costa Del Sol Airport (LEMG) at 14:50
Arrival: Munich Airport (EDDM) at 17:45
Route: Lufthansa Passenger Schedule. Enter filed route here before submitting Pirep.

Weather Information
Getting current METAR information for LEMG 250300Z 30013KT CAVOK 24/15 Q1017 NOSIG
Getting current METAR information for EDDM 250320Z 22007KT 9999 -RA FEW008 SCT043 13/12 Q1002 NOSIG

Schedule Frequency

Route Map